Search for airport 
image banner adimage banner ad
image banner ad

DNMA - Maiduguri/Maiduguri

Located in Maiduguri, Nigeria

ICAO - DNMA, IATA - MIU

Data provided by Airmate  

General information

Coordinates: N11°51'19" E13°4'53"
Elevation is 1097 feet MSL.
 
Rated:
View ratings: [VIEW]


View others Airports in Borno

Operational data

Open for public use
Current time UTC:
Current local time:
Weather
TAF: TAF DNMA 120500Z 1206/1312 25007KT CAVOK BECMG 1207/1209 BKN012 PROB40 1212/1216 SCT013 PROB30 1214/1218 FEW013 FEW020CB
View NOTAMs / SUP AIP / TFR affecting this airport [VIEW]
Communications frequencies: [VIEW]

Runways:

RWY identifierQFULength (ft)Width (ft)SurfaceLDA (ft)
0546°9846197ASP
23226°9843197

Airport contact information

Address: Maiduguri Nigeria

Satellite view of DNMA